Terminal Aerodrome Forecast
Issued by NWS

Home | Current Version | Previous Version | Text Only | Print | Product List | Glossary On
Versions: 1 2 3 4 5 6 7 8 9 10 11 12 13 14 15 16 17 18 19 20 21 22 23 24 25 26
000
FTUS45 KGJT 271739
TAFTEX
TAF
KTEX 271739Z 2718/2818 28009G10KT P6SM VCSH SCT060 BKN140
     FM271900 28010G18KT P6SM VCTS SCT080CB
     FM272200 29010KT P6SM VCSH SCT130
     FM280000 31008KT P6SM SCT150
     FM280200 34006KT P6SM FEW200
     FM280400 05005KT P6SM SKC=

USA.gov is the U.S. government's official web portal to all federal, state and local government web resources and services.